createdAt,value
2018-05-07T00:03:13.803Z,11.4
2018-05-07T00:08:13.382Z,11.4
2018-05-07T00:13:13.748Z,11.3
2018-05-07T00:18:14.192Z,11.3
2018-05-07T00:23:13.423Z,11.2
2018-05-07T00:28:13.666Z,11.2
2018-05-07T00:33:14.046Z,11.1
2018-05-07T00:38:13.329Z,11.1
2018-05-07T00:43:13.565Z,10.9
2018-05-07T00:48:13.806Z,10.9
2018-05-07T00:53:14.016Z,10.7
2018-05-07T00:58:14.290Z,10.7
2018-05-07T01:03:13.588Z,10.6
2018-05-07T01:08:13.712Z,10.6
2018-05-07T01:13:13.969Z,10.3
2018-05-07T01:18:14.325Z,10.3
2018-05-07T01:23:13.547Z,10.2
2018-05-07T01:28:13.870Z,10.2
2018-05-07T01:33:14.251Z,10
2018-05-07T01:38:13.550Z,10
2018-05-07T01:43:13.811Z,9.8
2018-05-07T01:48:14.105Z,9.8
2018-05-07T01:53:14.344Z,9.7
2018-05-07T01:58:13.759Z,9.7
2018-05-07T02:03:14.141Z,9.6
2018-05-07T02:08:13.832Z,9.6
2018-05-07T02:13:14.141Z,9.4
2018-05-07T02:18:14.399Z,9.4
2018-05-07T02:23:13.693Z,9.3
2018-05-07T02:28:13.931Z,9.3
2018-05-07T02:33:14.241Z,9.2
2018-05-07T02:38:13.516Z,9.2
2018-05-07T02:43:13.892Z,9
2018-05-07T02:48:14.155Z,9
2018-05-07T02:53:14.338Z,8.8
2018-05-07T02:58:13.614Z,8.8
2018-05-07T03:03:13.966Z,8.7
2018-05-07T03:08:13.793Z,8.7
2018-05-07T03:13:14.137Z,8.7
2018-05-07T03:18:14.457Z,8.7
2018-05-07T03:23:13.679Z,8.6
2018-05-07T03:28:13.926Z,8.6
2018-05-07T03:33:14.256Z,8.4
2018-05-07T03:38:14.472Z,8.4
2018-05-07T03:43:13.738Z,8.3
2018-05-07T03:48:14.040Z,8.3
2018-05-07T03:53:14.537Z,8.2
2018-05-07T03:58:13.813Z,8.2
2018-05-07T04:03:14.287Z,8.2
2018-05-07T04:08:13.996Z,8.2
2018-05-07T04:13:14.323Z,8.2
2018-05-07T04:18:13.618Z,8.2
2018-05-07T04:23:14.266Z,8.2
2018-05-07T04:28:13.529Z,8.2
2018-05-07T04:33:14.166Z,8.2
2018-05-07T04:38:14.004Z,8.2
2018-05-07T04:43:14.323Z,8.3
2018-05-07T04:48:13.673Z,8.3
2018-05-07T04:53:14.138Z,8.4
2018-05-07T04:58:14.390Z,8.4
2018-05-07T05:03:13.736Z,8.7
2018-05-07T05:08:14.304Z,8.7
2018-05-07T05:13:13.650Z,9
2018-05-07T05:18:13.932Z,9
2018-05-07T05:23:14.188Z,9.3
2018-05-07T05:28:13.715Z,9.3
2018-05-07T05:33:14.154Z,9.6
2018-05-07T05:38:14.581Z,9.6
2018-05-07T05:43:13.817Z,10.1
2018-05-07T05:48:14.105Z,10.1
2018-05-07T05:53:14.278Z,10.3
2018-05-07T05:58:14.541Z,10.3
2018-05-07T06:03:14.071Z,10.8
2018-05-07T06:08:13.843Z,10.8
2018-05-07T06:13:14.158Z,11.2
2018-05-07T06:18:14.784Z,11.2
2018-05-07T06:23:14.099Z,12
2018-05-07T06:28:14.431Z,12
2018-05-07T06:33:13.800Z,13.1
2018-05-07T06:38:14.040Z,13.1
2018-05-07T06:43:14.290Z,14.3
2018-05-07T06:48:14.562Z,14.3
2018-05-07T06:53:14.400Z,15.3
2018-05-07T06:58:14.652Z,15.3
2018-05-07T07:03:13.919Z,16.3
2018-05-07T07:08:14.385Z,16.3
2018-05-07T07:13:13.812Z,17.4
2018-05-07T07:18:14.084Z,17.4
2018-05-07T07:23:14.336Z,18.2
2018-05-07T07:28:14.635Z,18.2
2018-05-07T07:33:13.951Z,18.6
2018-05-07T07:38:14.195Z,18.6
2018-05-07T07:43:14.545Z,19
2018-05-07T07:48:13.897Z,19
2018-05-07T07:53:14.313Z,19.4
2018-05-07T07:58:14.519Z,19.4
2018-05-07T08:03:14.916Z,19.7
2018-05-07T08:08:14.758Z,19.7
2018-05-07T08:13:14.037Z,20.4
2018-05-07T08:18:14.531Z,20.4
2018-05-07T08:23:13.925Z,20.8
2018-05-07T08:28:14.157Z,20.8
2018-05-07T08:33:14.477Z,20.9
2018-05-07T08:38:13.974Z,20.9
2018-05-07T08:43:14.235Z,21.1
2018-05-07T08:48:14.653Z,21.1
2018-05-07T08:53:14.016Z,21.3
2018-05-07T08:58:14.349Z,21.3
2018-05-07T09:03:14.658Z,21.6
2018-05-07T09:08:14.658Z,21.6
2018-05-07T09:13:13.865Z,21.8
2018-05-07T09:18:14.150Z,21.8
2018-05-07T09:23:14.421Z,22.3
2018-05-07T09:28:14.673Z,22.3
2018-05-07T09:33:14.087Z,22.4
2018-05-07T09:38:14.359Z,22.4
2018-05-07T09:43:14.666Z,22.7
2018-05-07T09:48:13.988Z,22.7
2018-05-07T09:53:14.327Z,22.6
2018-05-07T09:58:14.530Z,22.6
2018-05-07T10:03:14.879Z,22.7
2018-05-07T10:08:14.810Z,22.7
2018-05-07T10:13:14.105Z,22.7
2018-05-07T10:18:14.750Z,22.7
2018-05-07T10:23:14.025Z,23.1
2018-05-07T10:28:14.300Z,23.1
2018-05-07T10:33:14.722Z,23.3
2018-05-07T10:38:14.155Z,23.3
2018-05-07T10:43:14.425Z,23.6
2018-05-07T10:48:14.800Z,23.6
2018-05-07T10:53:14.283Z,23.9
2018-05-07T10:58:14.500Z,23.9
2018-05-07T11:03:14.898Z,24
2018-05-07T11:08:14.317Z,24
2018-05-07T11:13:14.964Z,24.1
2018-05-07T11:18:14.222Z,24.1
2018-05-07T11:23:14.472Z,23.9
2018-05-07T11:28:14.696Z,23.9
2018-05-07T11:33:14.940Z,23.9
2018-05-07T11:38:14.227Z,23.9
2018-05-07T11:43:14.514Z,24.2
2018-05-07T11:48:14.798Z,24.2
2018-05-07T11:53:15.024Z,24.5
2018-05-07T11:58:14.311Z,24.5
2018-05-07T12:03:14.636Z,24.8
2018-05-07T12:08:14.829Z,24.8
2018-05-07T12:13:15.011Z,25.1
2018-05-07T12:18:14.267Z,25.1
2018-05-07T12:23:14.583Z,25.3
2018-05-07T12:28:14.996Z,25.3
2018-05-07T12:33:14.320Z,25.5
2018-05-07T12:38:14.534Z,25.5
2018-05-07T12:43:14.766Z,25.8
2018-05-07T12:48:15.028Z,25.8
2018-05-07T12:53:14.391Z,25.8
2018-05-07T12:58:14.633Z,25.8
2018-05-07T13:03:15.041Z,25.7
2018-05-07T13:08:15.113Z,25.7
2018-05-07T13:13:14.425Z,25.7
2018-05-07T13:18:14.946Z,25.7
2018-05-07T13:23:14.215Z,25.8
2018-05-07T13:28:14.445Z,25.8
2018-05-07T13:33:14.867Z,25.8
2018-05-07T13:38:15.133Z,25.8
2018-05-07T13:43:14.395Z,26.1
2018-05-07T13:48:14.659Z,26.1
2018-05-07T13:53:14.931Z,25.6
2018-05-07T13:58:14.395Z,25.6
2018-05-07T14:03:14.729Z,25.8
2018-05-07T14:08:15.171Z,25.8
2018-05-07T14:13:14.898Z,25.7
2018-05-07T14:18:15.130Z,25.7
2018-05-07T14:23:14.421Z,25.7
2018-05-07T14:28:14.682Z,25.7
2018-05-07T14:33:14.931Z,25.7
2018-05-07T14:38:15.302Z,25.7
2018-05-07T14:43:14.742Z,25.7
2018-05-07T14:48:15.262Z,25.7
2018-05-07T14:53:14.486Z,25.8
2018-05-07T14:58:14.682Z,25.8
2018-05-07T15:03:14.959Z,25.6
2018-05-07T15:08:15.151Z,25.6
2018-05-07T15:13:14.614Z,25.7
2018-05-07T15:18:15.059Z,25.7
2018-05-07T15:23:14.923Z,25.6
2018-05-07T15:28:15.034Z,25.6
2018-05-07T15:33:15.280Z,25.6
2018-05-07T15:38:14.481Z,25.6
2018-05-07T15:43:14.894Z,25.4
2018-05-07T15:48:15.174Z,25.4
2018-05-07T15:53:14.277Z,25.4
2018-05-07T15:58:14.397Z,25.4
2018-05-07T16:03:14.829Z,25.6
2018-05-07T16:08:15.171Z,25.6
2018-05-07T16:13:14.578Z,25.5
2018-05-07T16:18:14.834Z,25.5
2018-05-07T16:23:15.440Z,25.3
2018-05-07T16:28:14.963Z,25.3
2018-05-07T16:33:15.257Z,25.1
2018-05-07T16:38:14.567Z,25.1
2018-05-07T16:43:14.802Z,24.8
2018-05-07T16:48:15.008Z,24.8
2018-05-07T16:53:15.135Z,24.4
2018-05-07T16:58:15.337Z,24.4
2018-05-07T17:03:14.673Z,24.1
2018-05-07T17:08:15.055Z,24.1
2018-05-07T17:13:14.803Z,23.7
2018-05-07T17:18:15.269Z,23.7
2018-05-07T17:23:14.491Z,23.3
2018-05-07T17:28:14.654Z,23.3
2018-05-07T17:33:14.886Z,23
2018-05-07T17:38:15.048Z,23
2018-05-07T17:43:15.489Z,22.7
2018-05-07T17:48:14.743Z,22.7
2018-05-07T17:53:14.924Z,22.2
2018-05-07T17:58:15.181Z,22.2
2018-05-07T18:03:15.621Z,21.9
2018-05-07T18:08:14.869Z,21.9
2018-05-07T18:13:14.734Z,21.6
2018-05-07T18:18:15.017Z,21.6
2018-05-07T18:23:15.342Z,21.2
2018-05-07T18:28:14.602Z,21.2
2018-05-07T18:33:14.840Z,20.9
2018-05-07T18:38:15.169Z,20.9
2018-05-07T18:43:15.384Z,20.6
2018-05-07T18:48:14.607Z,20.6
2018-05-07T18:53:14.831Z,20.2
2018-05-07T18:58:15.021Z,20.2
2018-05-07T19:03:14.619Z,19.8
2018-05-07T19:08:14.916Z,19.8
2018-05-07T19:13:14.610Z,19.4
2018-05-07T19:18:14.862Z,19.4
2018-05-07T19:23:14.973Z,19.1
2018-05-07T19:28:15.140Z,19.1
2018-05-07T19:33:15.409Z,18.7
2018-05-07T19:38:14.693Z,18.7
2018-05-07T19:43:14.858Z,18.3
2018-05-07T19:48:15.270Z,18.3
2018-05-07T19:53:15.401Z,18.1
2018-05-07T19:58:15.538Z,18.1
2018-05-07T20:03:14.910Z,17.8
2018-05-07T20:08:15.110Z,17.8
2018-05-07T20:13:15.161Z,17.5
2018-05-07T20:18:15.314Z,17.5
2018-05-07T20:23:15.544Z,17.2
2018-05-07T20:28:14.750Z,17.2
2018-05-07T20:33:15.197Z,16.9
2018-05-07T20:38:15.510Z,16.9
2018-05-07T20:43:14.694Z,16.7
2018-05-07T20:48:15.001Z,16.7
2018-05-07T20:53:15.424Z,16.4
2018-05-07T20:58:15.640Z,16.4
2018-05-07T21:03:14.886Z,16.1
2018-05-07T21:08:15.062Z,16.1
2018-05-07T21:13:15.399Z,15.8
2018-05-07T21:18:15.192Z,15.8
2018-05-07T21:23:15.379Z,15.5
2018-05-07T21:28:15.665Z,15.5
2018-05-07T21:33:14.930Z,15.2
2018-05-07T21:38:15.295Z,15.2
2018-05-07T21:43:14.730Z,14.9
2018-05-07T21:48:14.982Z,14.9
2018-05-07T21:53:15.178Z,14.6
2018-05-07T21:58:15.319Z,14.6
2018-05-07T22:03:15.830Z,14.4
2018-05-07T22:08:15.066Z,14.4
2018-05-07T22:13:15.361Z,14.2
2018-05-07T22:18:15.681Z,14.2
2018-05-07T22:23:14.891Z,14
2018-05-07T22:28:15.116Z,14
2018-05-07T22:33:15.454Z,13.8
2018-05-07T22:38:15.580Z,13.8
2018-05-07T22:43:15.807Z,13.7
2018-05-07T22:48:15.141Z,13.7
2018-05-07T22:53:15.309Z,13.7
2018-05-07T22:58:15.479Z,13.7
2018-05-07T23:03:14.895Z,13.7
2018-05-07T23:08:15.420Z,13.7
2018-05-07T23:13:15.682Z,13.8
2018-05-07T23:18:14.870Z,13.8
2018-05-07T23:23:15.052Z,14.1
2018-05-07T23:28:15.408Z,14.1
2018-05-07T23:33:15.680Z,14.3
2018-05-07T23:38:15.924Z,14.3
2018-05-07T23:43:15.127Z,14.6
2018-05-07T23:48:15.445Z,14.6
2018-05-07T23:53:15.735Z,14.8
2018-05-07T23:58:14.953Z,14.8
